sensor_id;sensor_type;location;lat;lon;timestamp;P1;durP1;ratioP1;P2;durP2;ratioP2
55065;SDS011;40964;42.114;24.220;2024-03-07T00:01:58;35.88;;;16.13;;
55065;SDS011;40964;42.114;24.220;2024-03-07T00:04:24;41.15;;;15.63;;
55065;SDS011;40964;42.114;24.220;2024-03-07T00:06:50;36.40;;;15.68;;
55065;SDS011;40964;42.114;24.220;2024-03-07T00:09:15;39.85;;;15.75;;
55065;SDS011;40964;42.114;24.220;2024-03-07T00:11:41;35.97;;;14.93;;
55065;SDS011;40964;42.114;24.220;2024-03-07T00:14:06;36.90;;;15.80;;
55065;SDS011;40964;42.114;24.220;2024-03-07T00:16:33;43.60;;;16.88;;
55065;SDS011;40964;42.114;24.220;2024-03-07T00:18:59;41.08;;;16.38;;
55065;SDS011;40964;42.114;24.220;2024-03-07T00:21:25;42.17;;;15.32;;
55065;SDS011;40964;42.114;24.220;2024-03-07T00:23:51;37.75;;;15.13;;
55065;SDS011;40964;42.114;24.220;2024-03-07T00:26:16;36.83;;;16.02;;
55065;SDS011;40964;42.114;24.220;2024-03-07T00:28:42;41.17;;;14.82;;
55065;SDS011;40964;42.114;24.220;2024-03-07T00:31:07;36.95;;;14.93;;
55065;SDS011;40964;42.114;24.220;2024-03-07T00:33:34;39.38;;;15.60;;
55065;SDS011;40964;42.114;24.220;2024-03-07T00:35:59;32.90;;;14.43;;
55065;SDS011;40964;42.114;24.220;2024-03-07T00:38:25;34.67;;;14.68;;
55065;SDS011;40964;42.114;24.220;2024-03-07T00:40:51;35.50;;;13.10;;
55065;SDS011;40964;42.114;24.220;2024-03-07T00:43:16;30.15;;;13.18;;
55065;SDS011;40964;42.114;24.220;2024-03-07T00:45:41;28.88;;;12.90;;
55065;SDS011;40964;42.114;24.220;2024-03-07T00:48:07;35.22;;;13.60;;
55065;SDS011;40964;42.114;24.220;2024-03-07T00:50:33;36.45;;;14.00;;
55065;SDS011;40964;42.114;24.220;2024-03-07T00:52:58;35.78;;;13.68;;
55065;SDS011;40964;42.114;24.220;2024-03-07T00:55:24;32.55;;;13.32;;
55065;SDS011;40964;42.114;24.220;2024-03-07T00:57:50;31.05;;;12.68;;
55065;SDS011;40964;42.114;24.220;2024-03-07T01:00:15;33.28;;;13.60;;
55065;SDS011;40964;42.114;24.220;2024-03-07T01:02:45;32.50;;;13.10;;
55065;SDS011;40964;42.114;24.220;2024-03-07T01:05:11;37.88;;;13.60;;
55065;SDS011;40964;42.114;24.220;2024-03-07T01:07:42;26.33;;;12.07;;
55065;SDS011;40964;42.114;24.220;2024-03-07T01:10:08;28.15;;;12.43;;
55065;SDS011;40964;42.114;24.220;2024-03-07T01:12:34;29.60;;;13.07;;
55065;SDS011;40964;42.114;24.220;2024-03-07T01:15:00;32.60;;;12.68;;
55065;SDS011;40964;42.114;24.220;2024-03-07T01:17:26;29.73;;;13.82;;
55065;SDS011;40964;42.114;24.220;2024-03-07T01:19:51;29.83;;;12.00;;
55065;SDS011;40964;42.114;24.220;2024-03-07T01:22:17;33.83;;;13.25;;
55065;SDS011;40964;42.114;24.220;2024-03-07T01:24:42;38.33;;;13.75;;
55065;SDS011;40964;42.114;24.220;2024-03-07T01:27:08;33.03;;;12.50;;
55065;SDS011;40964;42.114;24.220;2024-03-07T01:29:34;30.35;;;13.13;;
55065;SDS011;40964;42.114;24.220;2024-03-07T01:32:01;29.48;;;12.88;;
55065;SDS011;40964;42.114;24.220;2024-03-07T01:34:28;29.98;;;13.70;;
55065;SDS011;40964;42.114;24.220;2024-03-07T01:36:53;35.30;;;12.90;;
55065;SDS011;40964;42.114;24.220;2024-03-07T01:39:19;38.40;;;14.27;;
55065;SDS011;40964;42.114;24.220;2024-03-07T01:41:44;31.48;;;13.93;;
55065;SDS011;40964;42.114;24.220;2024-03-07T01:44:10;35.75;;;12.68;;
55065;SDS011;40964;42.114;24.220;2024-03-07T01:46:35;32.13;;;12.65;;
55065;SDS011;40964;42.114;24.220;2024-03-07T01:49:01;36.45;;;12.57;;
55065;SDS011;40964;42.114;24.220;2024-03-07T01:51:26;33.75;;;13.73;;
55065;SDS011;40964;42.114;24.220;2024-03-07T01:53:52;37.42;;;13.88;;
55065;SDS011;40964;42.114;24.220;2024-03-07T01:56:18;36.40;;;14.50;;
55065;SDS011;40964;42.114;24.220;2024-03-07T01:58:46;43.40;;;16.13;;
55065;SDS011;40964;42.114;24.220;2024-03-07T02:01:12;43.70;;;18.05;;
55065;SDS011;40964;42.114;24.220;2024-03-07T02:03:39;46.90;;;16.17;;
55065;SDS011;40964;42.114;24.220;2024-03-07T02:06:05;40.30;;;16.40;;
55065;SDS011;40964;42.114;24.220;2024-03-07T02:08:30;41.28;;;16.42;;
55065;SDS011;40964;42.114;24.220;2024-03-07T02:10:57;39.47;;;16.13;;
55065;SDS011;40964;42.114;24.220;2024-03-07T02:13:23;38.97;;;15.85;;
55065;SDS011;40964;42.114;24.220;2024-03-07T02:15:49;41.65;;;15.52;;
55065;SDS011;40964;42.114;24.220;2024-03-07T02:18:14;42.30;;;16.88;;
55065;SDS011;40964;42.114;24.220;2024-03-07T02:20:46;42.45;;;15.95;;
55065;SDS011;40964;42.114;24.220;2024-03-07T02:23:12;39.47;;;15.65;;
55065;SDS011;40964;42.114;24.220;2024-03-07T02:25:37;40.67;;;15.95;;
55065;SDS011;40964;42.114;24.220;2024-03-07T02:28:06;41.85;;;16.55;;
55065;SDS011;40964;42.114;24.220;2024-03-07T02:30:32;42.65;;;16.67;;
55065;SDS011;40964;42.114;24.220;2024-03-07T02:32:58;45.83;;;16.38;;
55065;SDS011;40964;42.114;24.220;2024-03-07T02:35:31;41.27;;;15.43;;
55065;SDS011;40964;42.114;24.220;2024-03-07T02:38:01;38.75;;;15.55;;
55065;SDS011;40964;42.114;24.220;2024-03-07T02:40:28;41.22;;;16.38;;
55065;SDS011;40964;42.114;24.220;2024-03-07T02:42:53;44.35;;;18.33;;
55065;SDS011;40964;42.114;24.220;2024-03-07T02:45:19;46.58;;;16.75;;
55065;SDS011;40964;42.114;24.220;2024-03-07T02:47:44;42.15;;;16.05;;
55065;SDS011;40964;42.114;24.220;2024-03-07T02:50:10;44.35;;;17.48;;
55065;SDS011;40964;42.114;24.220;2024-03-07T02:52:36;41.65;;;16.63;;
55065;SDS011;40964;42.114;24.220;2024-03-07T02:55:01;42.60;;;16.70;;
55065;SDS011;40964;42.114;24.220;2024-03-07T02:57:30;44.95;;;17.48;;
55065;SDS011;40964;42.114;24.220;2024-03-07T02:59:55;46.92;;;17.52;;
55065;SDS011;40964;42.114;24.220;2024-03-07T03:02:21;46.67;;;16.98;;
55065;SDS011;40964;42.114;24.220;2024-03-07T03:04:47;45.72;;;17.02;;
55065;SDS011;40964;42.114;24.220;2024-03-07T03:07:13;44.17;;;17.17;;
55065;SDS011;40964;42.114;24.220;2024-03-07T03:09:38;40.28;;;16.13;;
55065;SDS011;40964;42.114;24.220;2024-03-07T03:12:08;47.38;;;18.55;;
55065;SDS011;40964;42.114;24.220;2024-03-07T03:14:34;44.83;;;16.27;;
55065;SDS011;40964;42.114;24.220;2024-03-07T03:16:59;47.85;;;16.80;;
55065;SDS011;40964;42.114;24.220;2024-03-07T03:19:25;49.83;;;17.70;;
55065;SDS011;40964;42.114;24.220;2024-03-07T03:21:51;49.67;;;18.88;;
55065;SDS011;40964;42.114;24.220;2024-03-07T03:24:17;50.05;;;18.35;;
55065;SDS011;40964;42.114;24.220;2024-03-07T03:26:43;46.03;;;17.38;;
55065;SDS011;40964;42.114;24.220;2024-03-07T03:29:09;47.80;;;17.48;;
55065;SDS011;40964;42.114;24.220;2024-03-07T03:31:36;54.08;;;18.02;;
55065;SDS011;40964;42.114;24.220;2024-03-07T03:34:02;46.53;;;17.10;;
55065;SDS011;40964;42.114;24.220;2024-03-07T03:36:27;47.33;;;18.75;;
55065;SDS011;40964;42.114;24.220;2024-03-07T03:38:54;55.10;;;19.63;;
55065;SDS011;40964;42.114;24.220;2024-03-07T03:41:20;57.72;;;19.52;;
55065;SDS011;40964;42.114;24.220;2024-03-07T03:43:45;55.53;;;19.33;;
55065;SDS011;40964;42.114;24.220;2024-03-07T03:46:12;59.13;;;20.38;;
55065;SDS011;40964;42.114;24.220;2024-03-07T03:48:41;57.50;;;20.20;;
55065;SDS011;40964;42.114;24.220;2024-03-07T03:51:10;64.18;;;23.73;;
55065;SDS011;40964;42.114;24.220;2024-03-07T03:53:38;57.83;;;20.40;;
55065;SDS011;40964;42.114;24.220;2024-03-07T03:56:03;53.92;;;19.33;;
55065;SDS011;40964;42.114;24.220;2024-03-07T03:58:32;52.17;;;18.60;;
55065;SDS011;40964;42.114;24.220;2024-03-07T04:00:57;57.08;;;19.80;;
55065;SDS011;40964;42.114;24.220;2024-03-07T04:03:26;54.70;;;18.65;;
55065;SDS011;40964;42.114;24.220;2024-03-07T04:05:51;52.13;;;18.45;;
55065;SDS011;40964;42.114;24.220;2024-03-07T04:08:17;59.78;;;18.40;;
55065;SDS011;40964;42.114;24.220;2024-03-07T04:10:45;56.40;;;18.52;;
55065;SDS011;40964;42.114;24.220;2024-03-07T04:13:10;56.58;;;18.55;;
55065;SDS011;40964;42.114;24.220;2024-03-07T04:15:36;65.25;;;20.17;;
55065;SDS011;40964;42.114;24.220;2024-03-07T04:18:01;60.30;;;21.25;;
55065;SDS011;40964;42.114;24.220;2024-03-07T04:20:27;60.55;;;20.10;;
55065;SDS011;40964;42.114;24.220;2024-03-07T04:22:52;59.40;;;20.95;;
55065;SDS011;40964;42.114;24.220;2024-03-07T04:25:17;60.30;;;21.02;;
55065;SDS011;40964;42.114;24.220;2024-03-07T04:27:43;60.45;;;19.92;;
55065;SDS011;40964;42.114;24.220;2024-03-07T04:30:09;65.57;;;21.15;;
55065;SDS011;40964;42.114;24.220;2024-03-07T04:32:36;71.78;;;22.40;;
55065;SDS011;40964;42.114;24.220;2024-03-07T04:35:03;69.35;;;20.25;;
55065;SDS011;40964;42.114;24.220;2024-03-07T04:37:33;63.10;;;19.80;;
55065;SDS011;40964;42.114;24.220;2024-03-07T04:40:03;76.80;;;21.42;;
55065;SDS011;40964;42.114;24.220;2024-03-07T04:42:29;59.88;;;19.80;;
55065;SDS011;40964;42.114;24.220;2024-03-07T04:44:55;66.28;;;20.25;;
55065;SDS011;40964;42.114;24.220;2024-03-07T04:47:21;51.55;;;18.50;;
55065;SDS011;40964;42.114;24.220;2024-03-07T04:49:47;81.10;;;21.80;;
55065;SDS011;40964;42.114;24.220;2024-03-07T04:52:12;61.85;;;20.38;;
55065;SDS011;40964;42.114;24.220;2024-03-07T04:54:37;74.68;;;22.63;;
55065;SDS011;40964;42.114;24.220;2024-03-07T04:57:03;77.07;;;24.10;;
55065;SDS011;40964;42.114;24.220;2024-03-07T04:59:28;71.28;;;19.77;;
55065;SDS011;40964;42.114;24.220;2024-03-07T05:01:54;69.80;;;21.38;;
55065;SDS011;40964;42.114;24.220;2024-03-07T05:04:19;62.25;;;20.77;;
55065;SDS011;40964;42.114;24.220;2024-03-07T05:06:45;67.43;;;22.65;;
55065;SDS011;40964;42.114;24.220;2024-03-07T05:09:13;65.63;;;20.70;;
55065;SDS011;40964;42.114;24.220;2024-03-07T05:11:48;59.28;;;21.25;;
55065;SDS011;40964;42.114;24.220;2024-03-07T05:14:16;61.72;;;19.35;;
55065;SDS011;40964;42.114;24.220;2024-03-07T05:16:42;65.55;;;20.30;;
55065;SDS011;40964;42.114;24.220;2024-03-07T05:19:08;55.13;;;19.58;;
55065;SDS011;40964;42.114;24.220;2024-03-07T05:21:34;51.13;;;17.00;;
55065;SDS011;40964;42.114;24.220;2024-03-07T05:24:04;51.67;;;16.73;;
55065;SDS011;40964;42.114;24.220;2024-03-07T05:26:30;50.30;;;17.75;;
55065;SDS011;40964;42.114;24.220;2024-03-07T05:29:02;41.72;;;16.75;;
55065;SDS011;40964;42.114;24.220;2024-03-07T05:31:42;49.78;;;15.20;;
55065;SDS011;40964;42.114;24.220;2024-03-07T05:34:13;51.50;;;16.67;;
55065;SDS011;40964;42.114;24.220;2024-03-07T05:36:40;62.17;;;18.13;;
55065;SDS011;40964;42.114;24.220;2024-03-07T05:39:10;60.90;;;19.20;;
55065;SDS011;40964;42.114;24.220;2024-03-07T05:41:39;58.80;;;18.98;;
55065;SDS011;40964;42.114;24.220;2024-03-07T05:44:05;66.75;;;18.58;;
55065;SDS011;40964;42.114;24.220;2024-03-07T05:46:34;66.45;;;20.60;;
55065;SDS011;40964;42.114;24.220;2024-03-07T05:49:13;71.70;;;22.48;;
55065;SDS011;40964;42.114;24.220;2024-03-07T05:51:39;72.30;;;20.67;;
55065;SDS011;40964;42.114;24.220;2024-03-07T05:54:07;62.90;;;20.40;;
55065;SDS011;40964;42.114;24.220;2024-03-07T05:56:35;61.08;;;18.88;;
55065;SDS011;40964;42.114;24.220;2024-03-07T05:59:04;60.13;;;19.48;;
55065;SDS011;40964;42.114;24.220;2024-03-07T06:01:36;65.40;;;19.48;;
55065;SDS011;40964;42.114;24.220;2024-03-07T06:04:02;58.88;;;18.20;;
55065;SDS011;40964;42.114;24.220;2024-03-07T06:06:30;52.85;;;17.98;;
55065;SDS011;40964;42.114;24.220;2024-03-07T06:08:58;62.33;;;18.13;;
55065;SDS011;40964;42.114;24.220;2024-03-07T06:11:38;63.35;;;18.75;;
55065;SDS011;40964;42.114;24.220;2024-03-07T06:14:07;50.17;;;17.50;;
55065;SDS011;40964;42.114;24.220;2024-03-07T06:16:36;60.20;;;17.83;;
55065;SDS011;40964;42.114;24.220;2024-03-07T06:19:03;47.67;;;17.75;;
55065;SDS011;40964;42.114;24.220;2024-03-07T06:21:32;54.25;;;16.83;;
55065;SDS011;40964;42.114;24.220;2024-03-07T06:23:58;52.80;;;18.80;;
55065;SDS011;40964;42.114;24.220;2024-03-07T06:26:28;62.65;;;19.38;;
55065;SDS011;40964;42.114;24.220;2024-03-07T06:29:09;58.55;;;16.92;;
55065;SDS011;40964;42.114;24.220;2024-03-07T06:31:36;56.03;;;17.52;;
55065;SDS011;40964;42.114;24.220;2024-03-07T06:34:02;53.30;;;19.08;;
55065;SDS011;40964;42.114;24.220;2024-03-07T06:36:28;53.50;;;17.35;;
55065;SDS011;40964;42.114;24.220;2024-03-07T06:38:54;60.58;;;18.63;;
55065;SDS011;40964;42.114;24.220;2024-03-07T06:41:19;52.92;;;19.88;;
55065;SDS011;40964;42.114;24.220;2024-03-07T06:43:45;50.85;;;17.05;;
55065;SDS011;40964;42.114;24.220;2024-03-07T06:46:10;59.83;;;19.08;;
55065;SDS011;40964;42.114;24.220;2024-03-07T06:48:37;51.90;;;18.27;;
55065;SDS011;40964;42.114;24.220;2024-03-07T06:51:05;51.25;;;17.45;;
55065;SDS011;40964;42.114;24.220;2024-03-07T06:53:30;52.13;;;16.70;;
55065;SDS011;40964;42.114;24.220;2024-03-07T06:55:56;57.05;;;18.25;;
55065;SDS011;40964;42.114;24.220;2024-03-07T06:58:21;53.38;;;18.15;;
55065;SDS011;40964;42.114;24.220;2024-03-07T07:00:48;55.65;;;18.38;;
55065;SDS011;40964;42.114;24.220;2024-03-07T07:03:16;58.65;;;18.95;;
55065;SDS011;40964;42.114;24.220;2024-03-07T07:05:44;57.50;;;17.52;;
55065;SDS011;40964;42.114;24.220;2024-03-07T07:08:10;51.40;;;17.17;;
55065;SDS011;40964;42.114;24.220;2024-03-07T07:10:36;46.70;;;15.85;;
55065;SDS011;40964;42.114;24.220;2024-03-07T07:13:02;52.95;;;17.80;;
55065;SDS011;40964;42.114;24.220;2024-03-07T07:15:29;58.83;;;19.73;;
55065;SDS011;40964;42.114;24.220;2024-03-07T07:17:55;53.17;;;18.50;;
55065;SDS011;40964;42.114;24.220;2024-03-07T07:20:21;63.50;;;18.05;;
55065;SDS011;40964;42.114;24.220;2024-03-07T07:22:49;48.20;;;18.60;;
55065;SDS011;40964;42.114;24.220;2024-03-07T07:25:15;55.95;;;18.75;;
55065;SDS011;40964;42.114;24.220;2024-03-07T07:27:49;59.63;;;19.45;;
55065;SDS011;40964;42.114;24.220;2024-03-07T07:30:16;53.95;;;18.00;;
55065;SDS011;40964;42.114;24.220;2024-03-07T07:32:48;55.72;;;18.35;;
55065;SDS011;40964;42.114;24.220;2024-03-07T07:35:15;49.72;;;17.45;;
55065;SDS011;40964;42.114;24.220;2024-03-07T07:37:41;57.13;;;18.15;;
55065;SDS011;40964;42.114;24.220;2024-03-07T07:40:08;59.97;;;19.67;;
55065;SDS011;40964;42.114;24.220;2024-03-07T07:42:35;60.72;;;19.58;;
55065;SDS011;40964;42.114;24.220;2024-03-07T07:45:04;56.95;;;19.60;;
55065;SDS011;40964;42.114;24.220;2024-03-07T07:47:37;56.08;;;18.38;;
55065;SDS011;40964;42.114;24.220;2024-03-07T07:50:06;51.35;;;18.63;;
55065;SDS011;40964;42.114;24.220;2024-03-07T07:52:39;48.75;;;16.77;;
55065;SDS011;40964;42.114;24.220;2024-03-07T07:55:06;52.70;;;18.02;;
55065;SDS011;40964;42.114;24.220;2024-03-07T07:57:39;58.00;;;18.45;;
55065;SDS011;40964;42.114;24.220;2024-03-07T08:00:07;59.00;;;18.60;;
55065;SDS011;40964;42.114;24.220;2024-03-07T08:02:34;53.53;;;17.38;;
55065;SDS011;40964;42.114;24.220;2024-03-07T08:05:00;46.20;;;17.83;;
55065;SDS011;40964;42.114;24.220;2024-03-07T08:07:26;51.88;;;17.30;;
55065;SDS011;40964;42.114;24.220;2024-03-07T08:09:51;47.05;;;17.33;;
55065;SDS011;40964;42.114;24.220;2024-03-07T08:12:17;51.83;;;17.38;;
55065;SDS011;40964;42.114;24.220;2024-03-07T08:14:42;49.33;;;17.25;;
55065;SDS011;40964;42.114;24.220;2024-03-07T08:17:09;49.90;;;16.70;;
55065;SDS011;40964;42.114;24.220;2024-03-07T08:19:36;51.10;;;17.35;;
55065;SDS011;40964;42.114;24.220;2024-03-07T08:22:01;48.90;;;15.73;;
55065;SDS011;40964;42.114;24.220;2024-03-07T08:24:27;53.53;;;18.08;;
55065;SDS011;40964;42.114;24.220;2024-03-07T08:26:53;59.80;;;22.45;;
55065;SDS011;40964;42.114;24.220;2024-03-07T08:29:18;55.50;;;20.25;;
55065;SDS011;40964;42.114;24.220;2024-03-07T08:31:44;61.85;;;18.58;;
55065;SDS011;40964;42.114;24.220;2024-03-07T08:34:09;49.00;;;19.38;;
55065;SDS011;40964;42.114;24.220;2024-03-07T08:36:34;54.72;;;19.70;;
55065;SDS011;40964;42.114;24.220;2024-03-07T08:39:01;52.55;;;17.83;;
55065;SDS011;40964;42.114;24.220;2024-03-07T08:41:28;63.85;;;19.35;;
55065;SDS011;40964;42.114;24.220;2024-03-07T08:43:56;63.15;;;19.27;;
55065;SDS011;40964;42.114;24.220;2024-03-07T08:46:22;56.72;;;18.73;;
55065;SDS011;40964;42.114;24.220;2024-03-07T08:48:47;46.50;;;18.33;;
55065;SDS011;40964;42.114;24.220;2024-03-07T08:51:14;55.92;;;17.15;;
55065;SDS011;40964;42.114;24.220;2024-03-07T08:53:40;47.75;;;17.42;;
55065;SDS011;40964;42.114;24.220;2024-03-07T08:56:06;56.40;;;17.05;;
55065;SDS011;40964;42.114;24.220;2024-03-07T08:58:31;55.70;;;17.65;;
55065;SDS011;40964;42.114;24.220;2024-03-07T09:00:57;42.22;;;15.07;;
55065;SDS011;40964;42.114;24.220;2024-03-07T09:03:24;45.40;;;16.52;;
55065;SDS011;40964;42.114;24.220;2024-03-07T09:05:50;45.65;;;16.65;;
55065;SDS011;40964;42.114;24.220;2024-03-07T09:08:17;50.95;;;17.52;;
55065;SDS011;40964;42.114;24.220;2024-03-07T09:10:42;49.40;;;16.67;;
55065;SDS011;40964;42.114;24.220;2024-03-07T09:13:08;55.75;;;17.80;;
55065;SDS011;40964;42.114;24.220;2024-03-07T09:15:34;49.33;;;17.58;;
55065;SDS011;40964;42.114;24.220;2024-03-07T09:18:01;43.88;;;15.30;;
55065;SDS011;40964;42.114;24.220;2024-03-07T09:20:28;46.55;;;15.40;;
55065;SDS011;40964;42.114;24.220;2024-03-07T09:22:53;51.78;;;16.70;;
55065;SDS011;40964;42.114;24.220;2024-03-07T09:25:41;48.90;;;15.55;;
55065;SDS011;40964;42.114;24.220;2024-03-07T09:28:08;53.08;;;16.90;;
55065;SDS011;40964;42.114;24.220;2024-03-07T09:30:33;46.22;;;16.02;;
55065;SDS011;40964;42.114;24.220;2024-03-07T09:33:00;42.25;;;16.48;;
55065;SDS011;40964;42.114;24.220;2024-03-07T09:35:26;43.15;;;15.05;;
55065;SDS011;40964;42.114;24.220;2024-03-07T09:37:52;41.42;;;15.77;;
55065;SDS011;40964;42.114;24.220;2024-03-07T09:40:18;44.38;;;14.93;;
55065;SDS011;40964;42.114;24.220;2024-03-07T09:42:46;43.58;;;15.35;;
55065;SDS011;40964;42.114;24.220;2024-03-07T09:45:21;42.15;;;15.38;;
55065;SDS011;40964;42.114;24.220;2024-03-07T09:47:53;43.30;;;15.73;;
55065;SDS011;40964;42.114;24.220;2024-03-07T09:50:19;39.88;;;15.98;;
55065;SDS011;40964;42.114;24.220;2024-03-07T09:52:48;44.67;;;15.00;;
55065;SDS011;40964;42.114;24.220;2024-03-07T09:55:15;41.22;;;14.85;;
55065;SDS011;40964;42.114;24.220;2024-03-07T09:57:42;40.63;;;16.27;;
55065;SDS011;40964;42.114;24.220;2024-03-07T10:00:08;41.60;;;16.17;;
55065;SDS011;40964;42.114;24.220;2024-03-07T10:02:43;46.78;;;15.95;;
55065;SDS011;40964;42.114;24.220;2024-03-07T10:05:11;39.95;;;16.42;;
55065;SDS011;40964;42.114;24.220;2024-03-07T10:07:40;44.15;;;15.82;;
55065;SDS011;40964;42.114;24.220;2024-03-07T10:10:07;45.08;;;16.25;;
55065;SDS011;40964;42.114;24.220;2024-03-07T10:12:37;48.70;;;16.77;;
55065;SDS011;40964;42.114;24.220;2024-03-07T10:15:03;50.90;;;17.17;;
55065;SDS011;40964;42.114;24.220;2024-03-07T10:17:35;47.55;;;16.38;;
55065;SDS011;40964;42.114;24.220;2024-03-07T10:20:02;44.78;;;17.17;;
55065;SDS011;40964;42.114;24.220;2024-03-07T10:22:27;39.10;;;15.73;;
55065;SDS011;40964;42.114;24.220;2024-03-07T10:24:53;39.33;;;14.30;;
55065;SDS011;40964;42.114;24.220;2024-03-07T10:27:20;40.38;;;15.35;;
55065;SDS011;40964;42.114;24.220;2024-03-07T10:29:49;43.25;;;17.00;;
55065;SDS011;40964;42.114;24.220;2024-03-07T10:32:20;37.92;;;14.95;;
55065;SDS011;40964;42.114;24.220;2024-03-07T10:34:47;42.95;;;18.48;;
55065;SDS011;40964;42.114;24.220;2024-03-07T10:37:14;46.28;;;20.27;;
55065;SDS011;40964;42.114;24.220;2024-03-07T10:39:44;42.38;;;17.20;;
55065;SDS011;40964;42.114;24.220;2024-03-07T10:42:12;46.35;;;18.13;;
55065;SDS011;40964;42.114;24.220;2024-03-07T10:44:41;33.25;;;14.20;;
55065;SDS011;40964;42.114;24.220;2024-03-07T10:47:16;42.00;;;16.58;;
55065;SDS011;40964;42.114;24.220;2024-03-07T10:49:47;54.75;;;20.70;;
55065;SDS011;40964;42.114;24.220;2024-03-07T10:52:29;56.30;;;19.23;;
55065;SDS011;40964;42.114;24.220;2024-03-07T10:58:14;37.25;;;14.43;;
55065;SDS011;40964;42.114;24.220;2024-03-07T11:00:47;37.88;;;15.35;;
55065;SDS011;40964;42.114;24.220;2024-03-07T11:03:13;31.33;;;12.40;;
55065;SDS011;40964;42.114;24.220;2024-03-07T11:05:39;33.25;;;13.90;;
55065;SDS011;40964;42.114;24.220;2024-03-07T11:08:08;44.63;;;17.40;;
55065;SDS011;40964;42.114;24.220;2024-03-07T11:10:38;30.30;;;12.85;;
55065;SDS011;40964;42.114;24.220;2024-03-07T11:13:04;35.05;;;12.60;;
55065;SDS011;40964;42.114;24.220;2024-03-07T11:15:32;33.55;;;12.57;;
55065;SDS011;40964;42.114;24.220;2024-03-07T11:17:59;34.13;;;13.32;;
55065;SDS011;40964;42.114;24.220;2024-03-07T11:20:25;35.78;;;13.80;;
55065;SDS011;40964;42.114;24.220;2024-03-07T11:22:52;32.42;;;14.07;;
55065;SDS011;40964;42.114;24.220;2024-03-07T11:25:21;40.45;;;16.05;;
55065;SDS011;40964;42.114;24.220;2024-03-07T11:27:58;29.25;;;11.25;;
55065;SDS011;40964;42.114;24.220;2024-03-07T11:30:24;25.65;;;12.35;;
55065;SDS011;40964;42.114;24.220;2024-03-07T11:32:50;33.30;;;12.35;;
55065;SDS011;40964;42.114;24.220;2024-03-07T11:35:19;32.55;;;14.65;;
55065;SDS011;40964;42.114;24.220;2024-03-07T11:37:56;30.85;;;13.32;;
55065;SDS011;40964;42.114;24.220;2024-03-07T11:42:53;38.20;;;14.98;;
55065;SDS011;40964;42.114;24.220;2024-03-07T11:45:24;37.38;;;13.70;;
55065;SDS011;40964;42.114;24.220;2024-03-07T11:47:59;28.48;;;12.60;;
55065;SDS011;40964;42.114;24.220;2024-03-07T11:50:28;25.95;;;11.10;;
55065;SDS011;40964;42.114;24.220;2024-03-07T11:52:57;25.95;;;11.43;;
55065;SDS011;40964;42.114;24.220;2024-03-07T11:55:23;23.10;;;10.57;;
55065;SDS011;40964;42.114;24.220;2024-03-07T11:57:48;24.52;;;10.50;;
55065;SDS011;40964;42.114;24.220;2024-03-07T12:00:17;25.13;;;11.52;;
55065;SDS011;40964;42.114;24.220;2024-03-07T12:02:43;24.42;;;9.98;;
55065;SDS011;40964;42.114;24.220;2024-03-07T12:05:09;22.42;;;10.50;;
55065;SDS011;40964;42.114;24.220;2024-03-07T12:07:35;26.83;;;11.05;;
55065;SDS011;40964;42.114;24.220;2024-03-07T12:10:01;28.05;;;12.93;;
55065;SDS011;40964;42.114;24.220;2024-03-07T12:12:31;20.90;;;10.18;;
55065;SDS011;40964;42.114;24.220;2024-03-07T12:14:58;23.02;;;11.00;;
55065;SDS011;40964;42.114;24.220;2024-03-07T12:17:24;26.42;;;9.38;;
55065;SDS011;40964;42.114;24.220;2024-03-07T12:19:50;21.85;;;10.00;;
55065;SDS011;40964;42.114;24.220;2024-03-07T12:22:18;37.65;;;14.35;;
55065;SDS011;40964;42.114;24.220;2024-03-07T12:24:48;70.50;;;22.38;;
55065;SDS011;40964;42.114;24.220;2024-03-07T12:27:27;37.45;;;13.40;;
55065;SDS011;40964;42.114;24.220;2024-03-07T12:29:53;41.78;;;16.48;;
55065;SDS011;40964;42.114;24.220;2024-03-07T12:32:19;27.95;;;11.52;;
55065;SDS011;40964;42.114;24.220;2024-03-07T12:34:46;26.23;;;11.45;;
55065;SDS011;40964;42.114;24.220;2024-03-07T12:37:14;27.52;;;11.95;;
55065;SDS011;40964;42.114;24.220;2024-03-07T12:39:41;27.42;;;12.15;;
55065;SDS011;40964;42.114;24.220;2024-03-07T12:42:23;26.40;;;12.50;;
55065;SDS011;40964;42.114;24.220;2024-03-07T12:44:50;26.45;;;10.93;;
55065;SDS011;40964;42.114;24.220;2024-03-07T12:47:15;27.23;;;12.13;;
55065;SDS011;40964;42.114;24.220;2024-03-07T12:49:42;33.78;;;13.93;;
55065;SDS011;40964;42.114;24.220;2024-03-07T12:52:09;22.35;;;10.15;;
55065;SDS011;40964;42.114;24.220;2024-03-07T12:54:35;27.50;;;12.70;;
55065;SDS011;40964;42.114;24.220;2024-03-07T12:57:12;32.72;;;14.55;;
55065;SDS011;40964;42.114;24.220;2024-03-07T12:59:37;36.30;;;14.90;;
55065;SDS011;40964;42.114;24.220;2024-03-07T13:02:09;47.88;;;17.48;;
55065;SDS011;40964;42.114;24.220;2024-03-07T13:04:36;39.47;;;16.60;;
55065;SDS011;40964;42.114;24.220;2024-03-07T13:07:05;36.42;;;15.38;;
55065;SDS011;40964;42.114;24.220;2024-03-07T13:09:32;36.47;;;15.30;;
55065;SDS011;40964;42.114;24.220;2024-03-07T13:11:58;32.40;;;13.85;;
55065;SDS011;40964;42.114;24.220;2024-03-07T13:14:28;49.45;;;17.55;;
55065;SDS011;40964;42.114;24.220;2024-03-07T13:17:00;38.78;;;15.48;;
55065;SDS011;40964;42.114;24.220;2024-03-07T13:19:27;41.88;;;17.23;;
55065;SDS011;40964;42.114;24.220;2024-03-07T13:21:54;40.17;;;15.40;;
55065;SDS011;40964;42.114;24.220;2024-03-07T13:24:20;35.80;;;14.95;;
55065;SDS011;40964;42.114;24.220;2024-03-07T13:26:45;39.33;;;17.65;;
55065;SDS011;40964;42.114;24.220;2024-03-07T13:29:13;38.25;;;15.15;;
55065;SDS011;40964;42.114;24.220;2024-03-07T13:31:39;45.58;;;17.30;;
55065;SDS011;40964;42.114;24.220;2024-03-07T13:34:11;38.63;;;15.70;;
55065;SDS011;40964;42.114;24.220;2024-03-07T13:36:40;41.20;;;16.10;;
55065;SDS011;40964;42.114;24.220;2024-03-07T13:39:06;36.78;;;14.82;;
55065;SDS011;40964;42.114;24.220;2024-03-07T13:41:37;38.40;;;15.57;;
55065;SDS011;40964;42.114;24.220;2024-03-07T13:44:03;40.13;;;16.02;;
55065;SDS011;40964;42.114;24.220;2024-03-07T13:46:29;40.03;;;15.88;;
55065;SDS011;40964;42.114;24.220;2024-03-07T13:48:56;31.13;;;13.40;;
55065;SDS011;40964;42.114;24.220;2024-03-07T13:51:31;45.22;;;16.08;;
55065;SDS011;40964;42.114;24.220;2024-03-07T13:54:00;45.13;;;15.82;;
55065;SDS011;40964;42.114;24.220;2024-03-07T13:56:44;46.33;;;16.98;;
55065;SDS011;40964;42.114;24.220;2024-03-07T14:19:32;57.85;;;22.30;;
55065;SDS011;40964;42.114;24.220;2024-03-07T14:22:21;44.63;;;18.08;;
55065;SDS011;40964;42.114;24.220;2024-03-07T14:25:05;53.03;;;22.05;;
55065;SDS011;40964;42.114;24.220;2024-03-07T14:27:49;44.92;;;17.45;;
55065;SDS011;40964;42.114;24.220;2024-03-07T14:30:27;43.25;;;17.27;;
55065;SDS011;40964;42.114;24.220;2024-03-07T14:33:08;47.97;;;17.70;;
55065;SDS011;40964;42.114;24.220;2024-03-07T14:35:35;47.80;;;19.00;;
55065;SDS011;40964;42.114;24.220;2024-03-07T14:38:34;41.47;;;14.80;;